CYYZ/YYZ METAR and TAF weather

Enter ICAO airport designator
Station Type Date Time Source
CYYZ METAR 2017/04/25 04:00 UTC NOAA

CYYZ 250400Z 10010G16KT 15SM SCT260 08/00 A3007 RMK CI3 SLP188


Station Type Date Time Source
CYYZ Decoded METAR 2017/04/25 04:00 UTC NOAA

Toronto Pearson Int'L. Ont., Canada (CYYZ) 43-40N 079-38W 173M
Apr 25, 2017 - 12:00 AM EDT / 2017.04.25 0400 UTC
Wind: from the E (100 degrees) at 12 MPH (10 KT) gusting to 18 MPH (16 KT):0
Visibility: 15 mile(s):0
Sky conditions: partly cloudy
Temperature: 46 F (8 C)
Dew Point: 32 F (0 C)
Relative Humidity: 56%
Pressure (altimeter): 30.07 in. Hg (1018 hPa)
ob: CYYZ 250400Z 10010G16KT 15SM SCT260 08/00 A3007 RMK CI3 SLP188
cycle: 4

Station Type Date Time Source
CYYZ TAF 2017/04/25 03:39 UTC NOAA

TAF TAF CYYZ 250238Z 2503/2606 09010KT P6SM BKN250
FM251100 09012KT P6SM SCT030 BKN070
FM251400 09010G20KT P6SM -SHRA SCT008 OVC020
FM251800 09010G20KT 3SM -SHRA BR OVC006
FM252300 09012KT 5SM BR BKN008 OVC012
RMK NXT FCST BY 250600Z


Example: see airport list